sensor_id;sensor_type;location;lat;lon;timestamp;P1;durP1;ratioP1;P2;durP2;ratioP2
68432;SDS011;55412;51.350;17.056;2023-04-25T00:00:00;5.85;;;0.52;;
68432;SDS011;55412;51.350;17.056;2023-04-25T00:02:26;6.57;;;0.68;;
68432;SDS011;55412;51.350;17.056;2023-04-25T00:04:53;4.57;;;0.73;;
68432;SDS011;55412;51.350;17.056;2023-04-25T00:07:23;2.63;;;0.50;;
68432;SDS011;55412;51.350;17.056;2023-04-25T00:09:50;5.80;;;0.75;;
68432;SDS011;55412;51.350;17.056;2023-04-25T00:12:16;5.28;;;0.70;;
68432;SDS011;55412;51.350;17.056;2023-04-25T00:14:42;2.85;;;0.40;;
68432;SDS011;55412;51.350;17.056;2023-04-25T00:17:10;4.25;;;0.50;;
68432;SDS011;55412;51.350;17.056;2023-04-25T00:19:36;4.47;;;0.60;;
68432;SDS011;55412;51.350;17.056;2023-04-25T00:22:03;4.28;;;0.65;;
68432;SDS011;55412;51.350;17.056;2023-04-25T00:24:30;5.78;;;0.77;;
68432;SDS011;55412;51.350;17.056;2023-04-25T00:26:56;2.83;;;0.40;;
68432;SDS011;55412;51.350;17.056;2023-04-25T00:29:22;4.57;;;0.63;;
68432;SDS011;55412;51.350;17.056;2023-04-25T00:31:48;3.27;;;0.37;;
68432;SDS011;55412;51.350;17.056;2023-04-25T00:34:14;7.90;;;0.73;;
68432;SDS011;55412;51.350;17.056;2023-04-25T00:36:40;6.25;;;0.77;;
68432;SDS011;55412;51.350;17.056;2023-04-25T00:39:06;2.95;;;0.45;;
68432;SDS011;55412;51.350;17.056;2023-04-25T00:41:32;4.70;;;0.63;;
68432;SDS011;55412;51.350;17.056;2023-04-25T00:43:59;4.10;;;0.67;;
68432;SDS011;55412;51.350;17.056;2023-04-25T00:46:26;3.38;;;0.40;;
68432;SDS011;55412;51.350;17.056;2023-04-25T00:48:52;4.45;;;0.52;;
68432;SDS011;55412;51.350;17.056;2023-04-25T00:51:21;3.65;;;0.45;;
68432;SDS011;55412;51.350;17.056;2023-04-25T00:53:48;3.07;;;0.40;;
68432;SDS011;55412;51.350;17.056;2023-04-25T00:56:16;7.28;;;0.77;;
68432;SDS011;55412;51.350;17.056;2023-04-25T00:58:42;5.47;;;0.73;;
68432;SDS011;55412;51.350;17.056;2023-04-25T01:01:08;5.00;;;0.68;;
68432;SDS011;55412;51.350;17.056;2023-04-25T01:03:37;4.28;;;0.60;;
68432;SDS011;55412;51.350;17.056;2023-04-25T01:06:08;6.87;;;0.97;;
68432;SDS011;55412;51.350;17.056;2023-04-25T01:08:36;6.13;;;0.82;;
68432;SDS011;55412;51.350;17.056;2023-04-25T01:11:03;5.22;;;0.75;;
68432;SDS011;55412;51.350;17.056;2023-04-25T01:13:30;3.97;;;0.43;;
68432;SDS011;55412;51.350;17.056;2023-04-25T01:16:00;3.45;;;0.40;;
68432;SDS011;55412;51.350;17.056;2023-04-25T01:18:27;4.33;;;0.63;;
68432;SDS011;55412;51.350;17.056;2023-04-25T01:20:54;3.90;;;0.65;;
68432;SDS011;55412;51.350;17.056;2023-04-25T01:23:21;6.50;;;0.77;;
68432;SDS011;55412;51.350;17.056;2023-04-25T01:25:48;7.82;;;0.75;;
68432;SDS011;55412;51.350;17.056;2023-04-25T01:28:15;4.65;;;0.63;;
68432;SDS011;55412;51.350;17.056;2023-04-25T01:30:42;2.10;;;0.30;;
68432;SDS011;55412;51.350;17.056;2023-04-25T01:33:08;2.85;;;0.50;;
68432;SDS011;55412;51.350;17.056;2023-04-25T01:35:35;2.45;;;0.32;;
68432;SDS011;55412;51.350;17.056;2023-04-25T01:38:01;3.25;;;0.40;;
68432;SDS011;55412;51.350;17.056;2023-04-25T01:40:27;4.05;;;0.55;;
68432;SDS011;55412;51.350;17.056;2023-04-25T01:42:53;4.70;;;0.63;;
68432;SDS011;55412;51.350;17.056;2023-04-25T01:45:20;5.60;;;0.68;;
68432;SDS011;55412;51.350;17.056;2023-04-25T01:47:46;4.50;;;0.68;;
68432;SDS011;55412;51.350;17.056;2023-04-25T01:50:15;4.75;;;0.65;;
68432;SDS011;55412;51.350;17.056;2023-04-25T01:52:45;4.55;;;0.50;;
68432;SDS011;55412;51.350;17.056;2023-04-25T01:55:11;5.20;;;0.80;;
68432;SDS011;55412;51.350;17.056;2023-04-25T01:57:37;3.55;;;0.50;;
68432;SDS011;55412;51.350;17.056;2023-04-25T02:00:05;5.28;;;0.68;;
68432;SDS011;55412;51.350;17.056;2023-04-25T02:02:34;8.18;;;0.73;;
68432;SDS011;55412;51.350;17.056;2023-04-25T02:05:00;4.53;;;0.63;;
68432;SDS011;55412;51.350;17.056;2023-04-25T02:07:26;5.57;;;0.77;;
68432;SDS011;55412;51.350;17.056;2023-04-25T02:09:52;3.85;;;0.52;;
68432;SDS011;55412;51.350;17.056;2023-04-25T02:12:18;4.65;;;0.73;;
68432;SDS011;55412;51.350;17.056;2023-04-25T02:14:44;5.50;;;0.80;;
68432;SDS011;55412;51.350;17.056;2023-04-25T02:17:10;5.80;;;0.88;;
68432;SDS011;55412;51.350;17.056;2023-04-25T02:19:37;7.37;;;1.00;;
68432;SDS011;55412;51.350;17.056;2023-04-25T02:22:03;5.03;;;0.75;;
68432;SDS011;55412;51.350;17.056;2023-04-25T02:24:30;4.03;;;0.63;;
68432;SDS011;55412;51.350;17.056;2023-04-25T02:26:57;2.22;;;0.50;;
68432;SDS011;55412;51.350;17.056;2023-04-25T02:29:23;6.18;;;1.10;;
68432;SDS011;55412;51.350;17.056;2023-04-25T02:31:48;4.20;;;0.67;;
68432;SDS011;55412;51.350;17.056;2023-04-25T02:34:15;5.93;;;0.98;;
68432;SDS011;55412;51.350;17.056;2023-04-25T02:36:41;9.13;;;1.30;;
68432;SDS011;55412;51.350;17.056;2023-04-25T02:39:07;6.55;;;1.30;;
68432;SDS011;55412;51.350;17.056;2023-04-25T02:41:33;6.90;;;1.35;;
68432;SDS011;55412;51.350;17.056;2023-04-25T02:43:59;5.83;;;1.13;;
68432;SDS011;55412;51.350;17.056;2023-04-25T02:46:25;6.70;;;0.88;;
68432;SDS011;55412;51.350;17.056;2023-04-25T02:48:51;9.80;;;1.13;;
68432;SDS011;55412;51.350;17.056;2023-04-25T02:51:17;9.80;;;1.17;;
68432;SDS011;55412;51.350;17.056;2023-04-25T02:53:43;7.28;;;1.20;;
68432;SDS011;55412;51.350;17.056;2023-04-25T02:56:09;9.40;;;1.23;;
68432;SDS011;55412;51.350;17.056;2023-04-25T02:58:35;4.97;;;0.88;;
68432;SDS011;55412;51.350;17.056;2023-04-25T03:01:01;5.15;;;0.93;;
68432;SDS011;55412;51.350;17.056;2023-04-25T03:03:27;5.05;;;0.77;;
68432;SDS011;55412;51.350;17.056;2023-04-25T03:05:53;4.47;;;0.82;;
68432;SDS011;55412;51.350;17.056;2023-04-25T03:08:19;3.50;;;0.87;;
68432;SDS011;55412;51.350;17.056;2023-04-25T03:10:45;3.47;;;0.85;;
68432;SDS011;55412;51.350;17.056;2023-04-25T03:13:13;3.88;;;0.80;;
68432;SDS011;55412;51.350;17.056;2023-04-25T03:15:39;4.32;;;0.88;;
68432;SDS011;55412;51.350;17.056;2023-04-25T03:18:05;4.20;;;0.90;;
68432;SDS011;55412;51.350;17.056;2023-04-25T03:20:31;7.82;;;1.23;;
68432;SDS011;55412;51.350;17.056;2023-04-25T03:22:57;2.88;;;0.65;;
68432;SDS011;55412;51.350;17.056;2023-04-25T03:25:23;5.60;;;0.77;;
68432;SDS011;55412;51.350;17.056;2023-04-25T03:27:49;5.25;;;0.98;;
68432;SDS011;55412;51.350;17.056;2023-04-25T03:30:15;3.10;;;0.80;;
68432;SDS011;55412;51.350;17.056;2023-04-25T03:32:41;8.15;;;1.00;;
68432;SDS011;55412;51.350;17.056;2023-04-25T03:35:07;5.32;;;0.90;;
68432;SDS011;55412;51.350;17.056;2023-04-25T03:37:33;4.57;;;1.02;;
68432;SDS011;55412;51.350;17.056;2023-04-25T03:39:59;5.50;;;1.13;;
68432;SDS011;55412;51.350;17.056;2023-04-25T03:42:25;4.57;;;0.80;;
68432;SDS011;55412;51.350;17.056;2023-04-25T03:44:51;6.00;;;0.70;;
68432;SDS011;55412;51.350;17.056;2023-04-25T03:47:17;6.72;;;1.15;;
68432;SDS011;55412;51.350;17.056;2023-04-25T03:49:43;6.88;;;1.60;;
68432;SDS011;55412;51.350;17.056;2023-04-25T03:52:09;6.07;;;1.27;;
68432;SDS011;55412;51.350;17.056;2023-04-25T03:54:35;5.30;;;0.95;;
68432;SDS011;55412;51.350;17.056;2023-04-25T03:57:01;7.15;;;1.27;;
68432;SDS011;55412;51.350;17.056;2023-04-25T03:59:27;6.38;;;0.85;;
68432;SDS011;55412;51.350;17.056;2023-04-25T04:01:54;8.98;;;1.38;;
68432;SDS011;55412;51.350;17.056;2023-04-25T04:04:20;4.80;;;0.90;;
68432;SDS011;55412;51.350;17.056;2023-04-25T04:06:46;4.35;;;1.00;;
68432;SDS011;55412;51.350;17.056;2023-04-25T04:09:12;5.03;;;1.15;;
68432;SDS011;55412;51.350;17.056;2023-04-25T04:11:38;5.78;;;1.00;;
68432;SDS011;55412;51.350;17.056;2023-04-25T04:14:05;7.28;;;1.40;;
68432;SDS011;55412;51.350;17.056;2023-04-25T04:16:32;5.33;;;1.00;;
68432;SDS011;55412;51.350;17.056;2023-04-25T04:18:58;4.22;;;1.00;;
68432;SDS011;55412;51.350;17.056;2023-04-25T04:21:24;3.60;;;1.05;;
68432;SDS011;55412;51.350;17.056;2023-04-25T04:23:51;3.38;;;0.85;;
68432;SDS011;55412;51.350;17.056;2023-04-25T04:26:17;5.93;;;1.25;;
68432;SDS011;55412;51.350;17.056;2023-04-25T04:28:43;5.27;;;1.20;;
68432;SDS011;55412;51.350;17.056;2023-04-25T04:31:10;5.47;;;1.00;;
68432;SDS011;55412;51.350;17.056;2023-04-25T04:33:36;8.15;;;1.50;;
68432;SDS011;55412;51.350;17.056;2023-04-25T04:36:03;7.47;;;1.42;;
68432;SDS011;55412;51.350;17.056;2023-04-25T04:38:29;4.90;;;1.02;;
68432;SDS011;55412;51.350;17.056;2023-04-25T04:40:56;7.40;;;1.10;;
68432;SDS011;55412;51.350;17.056;2023-04-25T04:43:22;4.43;;;0.90;;
68432;SDS011;55412;51.350;17.056;2023-04-25T04:45:48;3.97;;;1.02;;
68432;SDS011;55412;51.350;17.056;2023-04-25T04:48:16;5.75;;;1.27;;
68432;SDS011;55412;51.350;17.056;2023-04-25T04:50:42;5.78;;;1.00;;
68432;SDS011;55412;51.350;17.056;2023-04-25T04:53:10;6.67;;;1.87;;
68432;SDS011;55412;51.350;17.056;2023-04-25T04:55:36;6.28;;;1.58;;
68432;SDS011;55412;51.350;17.056;2023-04-25T04:58:03;5.15;;;1.33;;
68432;SDS011;55412;51.350;17.056;2023-04-25T05:00:29;8.93;;;1.38;;
68432;SDS011;55412;51.350;17.056;2023-04-25T05:02:55;5.30;;;1.30;;
68432;SDS011;55412;51.350;17.056;2023-04-25T05:05:21;8.13;;;1.88;;
68432;SDS011;55412;51.350;17.056;2023-04-25T05:07:47;8.13;;;1.95;;
68432;SDS011;55412;51.350;17.056;2023-04-25T05:10:13;5.05;;;1.58;;
68432;SDS011;55412;51.350;17.056;2023-04-25T05:12:40;9.88;;;1.90;;
68432;SDS011;55412;51.350;17.056;2023-04-25T05:15:06;7.43;;;1.40;;
68432;SDS011;55412;51.350;17.056;2023-04-25T05:17:33;6.28;;;1.52;;
68432;SDS011;55412;51.350;17.056;2023-04-25T05:19:59;6.18;;;1.67;;
68432;SDS011;55412;51.350;17.056;2023-04-25T05:22:25;6.80;;;1.75;;
68432;SDS011;55412;51.350;17.056;2023-04-25T05:24:51;7.30;;;1.83;;
68432;SDS011;55412;51.350;17.056;2023-04-25T05:27:17;7.47;;;1.53;;
68432;SDS011;55412;51.350;17.056;2023-04-25T05:29:45;6.07;;;1.48;;
68432;SDS011;55412;51.350;17.056;2023-04-25T05:32:11;8.07;;;2.20;;
68432;SDS011;55412;51.350;17.056;2023-04-25T05:34:37;5.15;;;1.45;;
68432;SDS011;55412;51.350;17.056;2023-04-25T05:37:04;9.70;;;2.40;;
68432;SDS011;55412;51.350;17.056;2023-04-25T05:39:30;7.37;;;2.10;;
68432;SDS011;55412;51.350;17.056;2023-04-25T05:41:56;8.77;;;2.38;;
68432;SDS011;55412;51.350;17.056;2023-04-25T05:44:22;5.93;;;1.60;;
68432;SDS011;55412;51.350;17.056;2023-04-25T05:46:48;5.13;;;1.20;;
68432;SDS011;55412;51.350;17.056;2023-04-25T05:49:14;8.68;;;2.53;;
68432;SDS011;55412;51.350;17.056;2023-04-25T05:51:40;8.07;;;1.53;;
68432;SDS011;55412;51.350;17.056;2023-04-25T05:54:06;6.97;;;1.85;;
68432;SDS011;55412;51.350;17.056;2023-04-25T05:56:32;6.03;;;1.73;;
68432;SDS011;55412;51.350;17.056;2023-04-25T05:58:58;4.82;;;1.85;;
68432;SDS011;55412;51.350;17.056;2023-04-25T06:01:24;7.70;;;2.30;;
68432;SDS011;55412;51.350;17.056;2023-04-25T06:03:51;13.30;;;2.40;;
68432;SDS011;55412;51.350;17.056;2023-04-25T06:06:17;10.75;;;2.95;;
68432;SDS011;55412;51.350;17.056;2023-04-25T06:08:44;8.00;;;2.58;;
68432;SDS011;55412;51.350;17.056;2023-04-25T06:11:10;8.02;;;2.50;;
68432;SDS011;55412;51.350;17.056;2023-04-25T06:13:36;9.00;;;2.42;;
68432;SDS011;55412;51.350;17.056;2023-04-25T06:16:02;10.17;;;2.20;;
68432;SDS011;55412;51.350;17.056;2023-04-25T06:18:29;6.03;;;1.67;;
68432;SDS011;55412;51.350;17.056;2023-04-25T06:20:55;9.05;;;2.38;;
68432;SDS011;55412;51.350;17.056;2023-04-25T06:23:21;8.65;;;1.75;;
68432;SDS011;55412;51.350;17.056;2023-04-25T06:25:47;7.70;;;2.10;;
68432;SDS011;55412;51.350;17.056;2023-04-25T06:28:13;6.47;;;1.50;;
68432;SDS011;55412;51.350;17.056;2023-04-25T06:30:39;8.82;;;1.70;;
68432;SDS011;55412;51.350;17.056;2023-04-25T06:33:06;7.20;;;1.75;;
68432;SDS011;55412;51.350;17.056;2023-04-25T06:35:33;7.07;;;1.42;;
68432;SDS011;55412;51.350;17.056;2023-04-25T06:37:59;5.57;;;1.30;;
68432;SDS011;55412;51.350;17.056;2023-04-25T06:40:26;6.40;;;1.43;;
68432;SDS011;55412;51.350;17.056;2023-04-25T06:42:52;6.20;;;1.42;;
68432;SDS011;55412;51.350;17.056;2023-04-25T06:45:17;7.82;;;2.15;;
68432;SDS011;55412;51.350;17.056;2023-04-25T06:47:43;5.47;;;1.65;;
68432;SDS011;55412;51.350;17.056;2023-04-25T06:50:09;5.57;;;2.33;;
68432;SDS011;55412;51.350;17.056;2023-04-25T06:52:36;7.75;;;2.13;;
68432;SDS011;55412;51.350;17.056;2023-04-25T06:55:02;7.10;;;1.92;;
68432;SDS011;55412;51.350;17.056;2023-04-25T06:57:29;8.38;;;2.15;;
68432;SDS011;55412;51.350;17.056;2023-04-25T06:59:56;8.40;;;2.35;;
68432;SDS011;55412;51.350;17.056;2023-04-25T07:02:22;7.90;;;2.33;;
68432;SDS011;55412;51.350;17.056;2023-04-25T07:04:48;5.78;;;1.77;;
68432;SDS011;55412;51.350;17.056;2023-04-25T07:07:14;6.55;;;2.10;;
68432;SDS011;55412;51.350;17.056;2023-04-25T07:09:40;8.48;;;1.88;;
68432;SDS011;55412;51.350;17.056;2023-04-25T07:12:06;6.83;;;2.13;;
68432;SDS011;55412;51.350;17.056;2023-04-25T07:14:32;7.82;;;2.65;;
68432;SDS011;55412;51.350;17.056;2023-04-25T07:16:58;8.27;;;2.63;;
68432;SDS011;55412;51.350;17.056;2023-04-25T07:19:24;7.07;;;2.45;;
68432;SDS011;55412;51.350;17.056;2023-04-25T07:21:51;7.80;;;2.65;;
68432;SDS011;55412;51.350;17.056;2023-04-25T07:24:18;7.73;;;2.10;;
68432;SDS011;55412;51.350;17.056;2023-04-25T07:26:44;10.05;;;2.47;;
68432;SDS011;55412;51.350;17.056;2023-04-25T07:29:10;8.38;;;2.30;;
68432;SDS011;55412;51.350;17.056;2023-04-25T07:31:36;10.77;;;2.90;;
68432;SDS011;55412;51.350;17.056;2023-04-25T07:34:02;6.68;;;2.13;;
68432;SDS011;55412;51.350;17.056;2023-04-25T07:36:28;8.97;;;2.40;;
68432;SDS011;55412;51.350;17.056;2023-04-25T07:38:55;7.70;;;2.10;;
68432;SDS011;55412;51.350;17.056;2023-04-25T07:41:21;9.27;;;2.45;;
68432;SDS011;55412;51.350;17.056;2023-04-25T07:43:48;6.88;;;2.70;;
68432;SDS011;55412;51.350;17.056;2023-04-25T07:46:14;4.63;;;1.92;;
68432;SDS011;55412;51.350;17.056;2023-04-25T07:48:40;6.93;;;2.83;;
68432;SDS011;55412;51.350;17.056;2023-04-25T07:51:06;9.60;;;1.92;;
68432;SDS011;55412;51.350;17.056;2023-04-25T07:53:32;9.70;;;2.65;;
68432;SDS011;55412;51.350;17.056;2023-04-25T07:55:59;9.73;;;2.28;;
68432;SDS011;55412;51.350;17.056;2023-04-25T07:58:25;9.23;;;2.55;;
68432;SDS011;55412;51.350;17.056;2023-04-25T08:00:51;9.47;;;2.23;;
68432;SDS011;55412;51.350;17.056;2023-04-25T08:03:17;9.68;;;3.20;;
68432;SDS011;55412;51.350;17.056;2023-04-25T08:05:43;10.48;;;2.70;;
68432;SDS011;55412;51.350;17.056;2023-04-25T08:08:10;9.18;;;2.95;;
68432;SDS011;55412;51.350;17.056;2023-04-25T08:10:36;5.28;;;2.60;;
68432;SDS011;55412;51.350;17.056;2023-04-25T08:13:02;12.33;;;2.67;;
68432;SDS011;55412;51.350;17.056;2023-04-25T08:15:28;10.52;;;3.08;;
68432;SDS011;55412;51.350;17.056;2023-04-25T08:17:54;9.68;;;3.10;;
68432;SDS011;55412;51.350;17.056;2023-04-25T08:20:20;8.35;;;2.72;;
68432;SDS011;55412;51.350;17.056;2023-04-25T08:22:47;10.77;;;3.33;;
68432;SDS011;55412;51.350;17.056;2023-04-25T08:25:14;8.70;;;2.83;;
68432;SDS011;55412;51.350;17.056;2023-04-25T08:27:40;8.55;;;2.85;;
68432;SDS011;55412;51.350;17.056;2023-04-25T08:30:06;8.77;;;2.75;;
68432;SDS011;55412;51.350;17.056;2023-04-25T08:32:33;10.75;;;3.13;;
68432;SDS011;55412;51.350;17.056;2023-04-25T08:35:03;9.93;;;3.53;;
68432;SDS011;55412;51.350;17.056;2023-04-25T08:37:29;8.85;;;2.67;;
68432;SDS011;55412;51.350;17.056;2023-04-25T08:39:55;11.77;;;2.25;;
68432;SDS011;55412;51.350;17.056;2023-04-25T08:42:21;15.20;;;2.67;;
68432;SDS011;55412;51.350;17.056;2023-04-25T08:44:49;7.43;;;2.45;;
68432;SDS011;55412;51.350;17.056;2023-04-25T08:47:19;9.83;;;2.87;;
68432;SDS011;55412;51.350;17.056;2023-04-25T08:49:48;9.43;;;2.88;;
68432;SDS011;55412;51.350;17.056;2023-04-25T08:52:17;9.40;;;2.78;;
68432;SDS011;55412;51.350;17.056;2023-04-25T08:54:49;9.50;;;2.67;;
68432;SDS011;55412;51.350;17.056;2023-04-25T08:57:16;8.85;;;3.10;;
68432;SDS011;55412;51.350;17.056;2023-04-25T08:59:43;10.40;;;2.47;;
68432;SDS011;55412;51.350;17.056;2023-04-25T09:02:11;9.98;;;2.88;;
68432;SDS011;55412;51.350;17.056;2023-04-25T09:04:43;8.75;;;2.45;;
68432;SDS011;55412;51.350;17.056;2023-04-25T09:07:10;8.35;;;2.60;;
68432;SDS011;55412;51.350;17.056;2023-04-25T09:09:36;11.15;;;2.20;;
68432;SDS011;55412;51.350;17.056;2023-04-25T09:12:02;6.17;;;2.47;;
68432;SDS011;55412;51.350;17.056;2023-04-25T09:14:28;7.90;;;2.65;;
68432;SDS011;55412;51.350;17.056;2023-04-25T09:19:24;9.93;;;3.03;;
68432;SDS011;55412;51.350;17.056;2023-04-25T09:22:00;7.60;;;2.42;;
68432;SDS011;55412;51.350;17.056;2023-04-25T09:24:32;6.87;;;2.17;;
68432;SDS011;55412;51.350;17.056;2023-04-25T09:27:10;6.63;;;2.45;;
68432;SDS011;55412;51.350;17.056;2023-04-25T09:29:38;5.85;;;2.30;;
68432;SDS011;55412;51.350;17.056;2023-04-25T09:34:47;10.90;;;3.67;;
68432;SDS011;55412;51.350;17.056;2023-04-25T09:37:19;6.30;;;2.20;;
68432;SDS011;55412;51.350;17.056;2023-04-25T09:39:48;6.90;;;2.50;;
68432;SDS011;55412;51.350;17.056;2023-04-25T09:42:16;11.35;;;2.97;;
68432;SDS011;55412;51.350;17.056;2023-04-25T09:44:46;4.88;;;1.42;;
68432;SDS011;55412;51.350;17.056;2023-04-25T09:47:13;8.40;;;2.63;;
68432;SDS011;55412;51.350;17.056;2023-04-25T09:49:41;8.20;;;2.87;;
68432;SDS011;55412;51.350;17.056;2023-04-25T09:52:09;7.82;;;2.03;;
68432;SDS011;55412;51.350;17.056;2023-04-25T09:54:40;7.50;;;1.92;;
68432;SDS011;55412;51.350;17.056;2023-04-25T09:57:16;5.13;;;2.00;;
68432;SDS011;55412;51.350;17.056;2023-04-25T09:59:49;8.90;;;2.78;;
68432;SDS011;55412;51.350;17.056;2023-04-25T10:02:26;6.27;;;2.40;;
68432;SDS011;55412;51.350;17.056;2023-04-25T10:04:53;6.35;;;2.35;;
68432;SDS011;55412;51.350;17.056;2023-04-25T10:07:22;5.68;;;1.48;;
68432;SDS011;55412;51.350;17.056;2023-04-25T10:10:00;9.38;;;2.42;;
68432;SDS011;55412;51.350;17.056;2023-04-25T10:12:28;6.25;;;2.22;;
68432;SDS011;55412;51.350;17.056;2023-04-25T10:14:58;5.83;;;1.83;;
68432;SDS011;55412;51.350;17.056;2023-04-25T10:17:26;6.88;;;1.98;;
68432;SDS011;55412;51.350;17.056;2023-04-25T10:19:53;5.72;;;2.55;;
68432;SDS011;55412;51.350;17.056;2023-04-25T10:22:29;6.10;;;2.47;;
68432;SDS011;55412;51.350;17.056;2023-04-25T10:25:01;6.78;;;2.60;;
68432;SDS011;55412;51.350;17.056;2023-04-25T10:27:31;7.47;;;2.83;;
68432;SDS011;55412;51.350;17.056;2023-04-25T10:30:05;8.13;;;2.67;;
68432;SDS011;55412;51.350;17.056;2023-04-25T10:32:37;7.65;;;2.08;;
68432;SDS011;55412;51.350;17.056;2023-04-25T10:35:11;7.32;;;2.55;;
68432;SDS011;55412;51.350;17.056;2023-04-25T10:40:36;6.17;;;1.23;;
68432;SDS011;55412;51.350;17.056;2023-04-25T10:45:56;3.70;;;1.17;;
68432;SDS011;55412;51.350;17.056;2023-04-25T10:48:25;4.95;;;1.17;;
68432;SDS011;55412;51.350;17.056;2023-04-25T10:51:10;4.47;;;1.10;;
68432;SDS011;55412;51.350;17.056;2023-04-25T10:53:40;5.13;;;1.30;;
68432;SDS011;55412;51.350;17.056;2023-04-25T10:56:25;4.22;;;1.50;;
68432;SDS011;55412;51.350;17.056;2023-04-25T10:59:04;4.22;;;1.15;;
68432;SDS011;55412;51.350;17.056;2023-04-25T11:01:41;4.05;;;1.17;;
68432;SDS011;55412;51.350;17.056;2023-04-25T11:04:28;4.25;;;1.40;;
68432;SDS011;55412;51.350;17.056;2023-04-25T11:09:39;4.50;;;1.13;;
68432;SDS011;55412;51.350;17.056;2023-04-25T11:12:07;4.70;;;1.20;;
68432;SDS011;55412;51.350;17.056;2023-04-25T11:14:36;4.63;;;1.00;;
68432;SDS011;55412;51.350;17.056;2023-04-25T11:17:02;5.30;;;1.30;;
68432;SDS011;55412;51.350;17.056;2023-04-25T11:19:28;3.90;;;1.10;;
68432;SDS011;55412;51.350;17.056;2023-04-25T11:21:58;4.25;;;0.93;;
68432;SDS011;55412;51.350;17.056;2023-04-25T11:24:29;3.78;;;1.20;;
68432;SDS011;55412;51.350;17.056;2023-04-25T11:26:59;3.90;;;0.90;;
68432;SDS011;55412;51.350;17.056;2023-04-25T11:29:28;4.38;;;0.73;;
68432;SDS011;55412;51.350;17.056;2023-04-25T11:31:58;4.50;;;0.60;;
68432;SDS011;55412;51.350;17.056;2023-04-25T11:34:26;3.35;;;0.70;;
68432;SDS011;55412;51.350;17.056;2023-04-25T11:36:55;4.72;;;0.98;;
68432;SDS011;55412;51.350;17.056;2023-04-25T11:39:23;8.90;;;1.05;;
68432;SDS011;55412;51.350;17.056;2023-04-25T11:41:50;4.63;;;1.05;;
68432;SDS011;55412;51.350;17.056;2023-04-25T11:44:17;6.07;;;1.27;;
68432;SDS011;55412;51.350;17.056;2023-04-25T11:46:44;6.80;;;1.10;;
68432;SDS011;55412;51.350;17.056;2023-04-25T11:49:11;7.82;;;1.23;;
68432;SDS011;55412;51.350;17.056;2023-04-25T11:51:44;7.10;;;1.50;;
68432;SDS011;55412;51.350;17.056;2023-04-25T11:54:12;2.70;;;0.77;;
68432;SDS011;55412;51.350;17.056;2023-04-25T11:56:44;6.07;;;1.47;;
68432;SDS011;55412;51.350;17.056;2023-04-25T11:59:11;6.03;;;1.13;;
68432;SDS011;55412;51.350;17.056;2023-04-25T12:01:39;4.70;;;1.25;;
68432;SDS011;55412;51.350;17.056;2023-04-25T12:04:13;6.55;;;0.80;;
68432;SDS011;55412;51.350;17.056;2023-04-25T12:06:50;4.55;;;1.20;;
68432;SDS011;55412;51.350;17.056;2023-04-25T12:09:27;5.77;;;1.77;;
68432;SDS011;55412;51.350;17.056;2023-04-25T12:11:56;2.55;;;0.57;;
68432;SDS011;55412;51.350;17.056;2023-04-25T12:14:28;3.90;;;1.13;;
68432;SDS011;55412;51.350;17.056;2023-04-25T12:17:00;3.47;;;0.95;;
68432;SDS011;55412;51.350;17.056;2023-04-25T12:19:35;3.53;;;0.93;;
68432;SDS011;55412;51.350;17.056;2023-04-25T12:22:18;3.90;;;1.00;;
68432;SDS011;55412;51.350;17.056;2023-04-25T12:24:49;4.60;;;1.15;;
68432;SDS011;55412;51.350;17.056;2023-04-25T12:27:15;3.17;;;0.90;;
68432;SDS011;55412;51.350;17.056;2023-04-25T12:29:53;3.35;;;0.80;;
68432;SDS011;55412;51.350;17.056;2023-04-25T12:32:20;2.95;;;0.75;;
68432;SDS011;55412;51.350;17.056;2023-04-25T12:34:47;4.93;;;0.73;;
68432;SDS011;55412;51.350;17.056;2023-04-25T12:37:13;4.60;;;0.85;;
68432;SDS011;55412;51.350;17.056;2023-04-25T12:39:39;4.75;;;1.30;;
68432;SDS011;55412;51.350;17.056;2023-04-25T12:42:05;15.30;;;1.80;;
68432;SDS011;55412;51.350;17.056;2023-04-25T12:44:33;6.32;;;1.63;;
68432;SDS011;55412;51.350;17.056;2023-04-25T12:46:59;5.87;;;1.07;;
68432;SDS011;55412;51.350;17.056;2023-04-25T12:49:26;6.57;;;1.48;;
68432;SDS011;55412;51.350;17.056;2023-04-25T12:51:51;4.15;;;0.77;;
68432;SDS011;55412;51.350;17.056;2023-04-25T12:54:17;9.02;;;2.10;;
68432;SDS011;55412;51.350;17.056;2023-04-25T12:56:43;3.43;;;0.90;;
68432;SDS011;55412;51.350;17.056;2023-04-25T12:59:09;19.65;;;4.45;;
68432;SDS011;55412;51.350;17.056;2023-04-25T13:01:35;13.02;;;3.38;;
68432;SDS011;55412;51.350;17.056;2023-04-25T13:04:02;7.43;;;1.67;;
68432;SDS011;55412;51.350;17.056;2023-04-25T13:06:28;4.38;;;1.02;;
68432;SDS011;55412;51.350;17.056;2023-04-25T13:08:57;6.67;;;2.27;;
68432;SDS011;55412;51.350;17.056;2023-04-25T13:11:23;8.10;;;2.10;;
68432;SDS011;55412;51.350;17.056;2023-04-25T13:13:49;14.95;;;4.57;;
68432;SDS011;55412;51.350;17.056;2023-04-25T13:16:15;7.90;;;1.80;;
68432;SDS011;55412;51.350;17.056;2023-04-25T13:18:41;20.00;;;6.90;;
68432;SDS011;55412;51.350;17.056;2023-04-25T13:21:09;13.20;;;5.20;;
68432;SDS011;55412;51.350;17.056;2023-04-25T13:23:38;9.82;;;2.58;;
68432;SDS011;55412;51.350;17.056;2023-04-25T13:26:05;16.23;;;3.90;;
68432;SDS011;55412;51.350;17.056;2023-04-25T13:28:31;5.20;;;1.50;;
68432;SDS011;55412;51.350;17.056;2023-04-25T13:30:57;10.95;;;3.30;;
68432;SDS011;55412;51.350;17.056;2023-04-25T13:33:24;4.43;;;1.70;;
68432;SDS011;55412;51.350;17.056;2023-04-25T13:35:50;7.07;;;2.97;;
68432;SDS011;55412;51.350;17.056;2023-04-25T13:38:21;5.70;;;1.67;;
68432;SDS011;55412;51.350;17.056;2023-04-25T13:40:49;6.97;;;1.45;;
68432;SDS011;55412;51.350;17.056;2023-04-25T13:43:17;3.95;;;1.10;;
68432;SDS011;55412;51.350;17.056;2023-04-25T13:45:46;4.20;;;1.40;;
68432;SDS011;55412;51.350;17.056;2023-04-25T13:48:13;5.32;;;1.45;;
68432;SDS011;55412;51.350;17.056;2023-04-25T13:50:40;4.97;;;1.42;;
68432;SDS011;55412;51.350;17.056;2023-04-25T13:53:06;4.30;;;1.00;;
68432;SDS011;55412;51.350;17.056;2023-04-25T13:55:33;3.42;;;0.90;;
68432;SDS011;55412;51.350;17.056;2023-04-25T13:58:03;5.10;;;1.17;;
68432;SDS011;55412;51.350;17.056;2023-04-25T14:00:33;9.52;;;4.53;;
68432;SDS011;55412;51.350;17.056;2023-04-25T14:03:03;13.93;;;3.67;;
68432;SDS011;55412;51.350;17.056;2023-04-25T14:05:32;4.53;;;1.70;;
68432;SDS011;55412;51.350;17.056;2023-04-25T14:08:03;10.35;;;1.60;;
68432;SDS011;55412;51.350;17.056;2023-04-25T14:10:30;10.47;;;1.67;;
68432;SDS011;55412;51.350;17.056;2023-04-25T14:12:57;7.07;;;1.60;;
68432;SDS011;55412;51.350;17.056;2023-04-25T14:15:22;5.85;;;1.67;;
68432;SDS011;55412;51.350;17.056;2023-04-25T14:17:50;5.57;;;1.90;;
68432;SDS011;55412;51.350;17.056;2023-04-25T14:20:16;6.27;;;2.30;;
68432;SDS011;55412;51.350;17.056;2023-04-25T14:22:45;5.07;;;1.93;;
68432;SDS011;55412;51.350;17.056;2023-04-25T14:25:11;4.60;;;1.67;;
68432;SDS011;55412;51.350;17.056;2023-04-25T14:27:37;7.40;;;2.25;;
68432;SDS011;55412;51.350;17.056;2023-04-25T14:30:03;5.50;;;2.30;;
68432;SDS011;55412;51.350;17.056;2023-04-25T14:32:31;6.70;;;2.38;;
68432;SDS011;55412;51.350;17.056;2023-04-25T14:34:57;6.40;;;2.70;;
68432;SDS011;55412;51.350;17.056;2023-04-25T14:37:23;5.25;;;1.75;;
68432;SDS011;55412;51.350;17.056;2023-04-25T14:39:49;5.13;;;1.90;;
68432;SDS011;55412;51.350;17.056;2023-04-25T14:42:15;3.83;;;1.40;;
68432;SDS011;55412;51.350;17.056;2023-04-25T14:44:41;5.68;;;1.33;;
68432;SDS011;55412;51.350;17.056;2023-04-25T14:47:07;3.97;;;1.53;;